createdAt,value
2022-11-29T00:01:09.644Z,22.77
2022-11-29T00:03:38.188Z,24.00
2022-11-29T00:06:07.048Z,21.57
2022-11-29T00:08:36.856Z,24.20
2022-11-29T00:11:05.927Z,23.37
2022-11-29T00:13:34.198Z,25.40
2022-11-29T00:16:06.186Z,24.77
2022-11-29T00:18:34.688Z,27.73
2022-11-29T00:21:06.409Z,30.50
2022-11-29T00:23:34.605Z,23.87
2022-11-29T00:26:06.369Z,22.67
2022-11-29T00:28:34.915Z,23.23
2022-11-29T00:31:03.379Z,27.83
2022-11-29T00:33:31.934Z,21.50
2022-11-29T00:36:02.402Z,21.27
2022-11-29T00:38:30.639Z,21.90
2022-11-29T00:40:58.845Z,22.27
2022-11-29T00:43:28.570Z,24.50
2022-11-29T00:45:56.828Z,26.13
2022-11-29T00:48:25.092Z,35.60
2022-11-29T00:50:53.338Z,23.17
2022-11-29T00:53:21.586Z,21.50
2022-11-29T00:55:50.186Z,26.73
2022-11-29T00:58:18.768Z,30.20
2022-11-29T01:00:48.529Z,24.27
2022-11-29T01:03:17.298Z,23.23
2022-11-29T01:05:45.622Z,22.73
2022-11-29T01:08:14.473Z,24.63
2022-11-29T01:10:42.903Z,25.93
2022-11-29T01:13:11.634Z,29.77
2022-11-29T01:15:40.368Z,24.83
2022-11-29T01:18:10.444Z,27.03
2022-11-29T01:20:40.060Z,25.73
2022-11-29T01:23:08.360Z,27.17
2022-11-29T01:25:36.622Z,28.00
2022-11-29T01:28:04.940Z,31.97
2022-11-29T01:30:33.214Z,28.03
2022-11-29T01:33:01.500Z,35.17
2022-11-29T01:35:31.126Z,37.10
2022-11-29T01:37:59.353Z,34.17
2022-11-29T01:40:27.587Z,33.47
2022-11-29T01:42:55.881Z,33.60
2022-11-29T01:45:24.989Z,31.53
2022-11-29T01:47:54.585Z,81.37
2022-11-29T01:50:23.037Z,33.70
2022-11-29T01:52:52.675Z,30.40
2022-11-29T01:55:21.036Z,34.63
2022-11-29T01:57:49.726Z,36.33
2022-11-29T02:00:20.242Z,35.20
2022-11-29T02:02:51.336Z,36.63
2022-11-29T02:05:20.349Z,37.50
2022-11-29T02:07:51.516Z,51.30
2022-11-29T02:10:21.502Z,39.40
2022-11-29T02:12:54.576Z,36.87
2022-11-29T02:15:27.536Z,39.27
2022-11-29T02:18:02.568Z,39.30
2022-11-29T02:20:39.729Z,37.70
2022-11-29T02:23:16.780Z,36.13
2022-11-29T02:25:56.056Z,33.57
2022-11-29T02:28:36.519Z,32.60
2022-11-29T02:31:12.434Z,33.43
2022-11-29T02:33:47.019Z,29.67
2022-11-29T02:36:29.899Z,33.50
2022-11-29T02:39:04.810Z,37.27
2022-11-29T02:41:41.315Z,31.37
2022-11-29T02:44:19.316Z,32.73
2022-11-29T02:46:53.340Z,35.77
2022-11-29T02:49:29.497Z,29.90
2022-11-29T02:52:00.475Z,30.70
2022-11-29T02:54:30.349Z,33.90
2022-11-29T02:56:59.784Z,32.43
2022-11-29T02:59:38.932Z,34.10
2022-11-29T03:02:10.288Z,31.13
2022-11-29T03:04:42.841Z,29.90
2022-11-29T03:07:14.540Z,37.80
2022-11-29T03:09:45.125Z,38.37
2022-11-29T03:12:18.559Z,37.30
2022-11-29T03:14:52.059Z,37.27
2022-11-29T03:17:27.387Z,39.07
2022-11-29T03:20:09.138Z,38.37
2022-11-29T03:22:43.647Z,38.67
2022-11-29T03:25:15.039Z,39.17
2022-11-29T03:27:45.303Z,38.00
2022-11-29T03:30:14.976Z,37.43
2022-11-29T03:32:47.375Z,35.17
2022-11-29T03:35:20.287Z,38.03
2022-11-29T03:37:54.019Z,48.43
2022-11-29T03:40:24.237Z,39.03
2022-11-29T03:42:53.452Z,37.30
2022-11-29T03:45:25.416Z,38.93
2022-11-29T03:47:58.279Z,39.97
2022-11-29T03:50:30.543Z,38.23
2022-11-29T03:53:03.561Z,37.17
2022-11-29T03:55:33.698Z,38.27
2022-11-29T03:58:07.518Z,40.87
2022-11-29T04:00:43.488Z,39.53
2022-11-29T04:03:19.917Z,42.63
2022-11-29T04:05:56.284Z,37.57
2022-11-29T04:08:41.851Z,35.67
2022-11-29T04:11:24.987Z,41.67
2022-11-29T04:14:23.558Z,39.90
2022-11-29T04:17:15.878Z,34.03
2022-11-29T04:20:05.031Z,40.43
2022-11-29T04:22:45.236Z,42.70
2022-11-29T04:25:17.020Z,39.63
2022-11-29T04:27:49.904Z,36.93
2022-11-29T04:30:22.218Z,34.83
2022-11-29T04:33:10.184Z,36.80
2022-11-29T04:35:43.700Z,38.10
2022-11-29T04:38:19.975Z,41.57
2022-11-29T04:40:53.546Z,37.10
2022-11-29T04:43:32.175Z,40.10
2022-11-29T04:46:21.483Z,39.77
2022-11-29T04:49:10.584Z,36.97
2022-11-29T04:51:45.293Z,40.13
2022-11-29T04:54:22.103Z,35.33
2022-11-29T04:56:51.933Z,37.17
2022-11-29T04:59:22.513Z,39.53
2022-11-29T05:01:57.691Z,32.67
2022-11-29T05:04:30.138Z,38.50
2022-11-29T05:07:01.767Z,28.97
2022-11-29T05:09:37.777Z,40.53
2022-11-29T05:12:10.584Z,41.50
2022-11-29T05:14:46.936Z,35.77
2022-11-29T05:17:26.860Z,35.00
2022-11-29T05:20:00.552Z,33.70
2022-11-29T05:22:32.327Z,35.30
2022-11-29T05:25:07.567Z,40.57
2022-11-29T05:27:40.765Z,39.60
2022-11-29T05:30:12.768Z,36.57
2022-11-29T05:32:47.247Z,38.57
2022-11-29T05:35:34.538Z,35.63
2022-11-29T05:38:08.913Z,47.73
2022-11-29T05:40:52.770Z,49.10
2022-11-29T05:43:27.027Z,47.47
2022-11-29T05:45:59.037Z,34.50
2022-11-29T05:48:30.946Z,36.83
2022-11-29T05:51:07.155Z,39.43
2022-11-29T05:53:39.485Z,39.23
2022-11-29T05:56:12.463Z,38.73
2022-11-29T05:58:45.204Z,36.70
2022-11-29T06:01:18.078Z,39.27
2022-11-29T06:03:52.720Z,37.80
2022-11-29T06:06:24.650Z,38.47
2022-11-29T06:08:56.639Z,34.40
2022-11-29T06:11:29.320Z,41.83
2022-11-29T06:14:05.547Z,39.97
2022-11-29T06:16:44.221Z,37.10
2022-11-29T06:19:33.388Z,34.33
2022-11-29T06:22:07.816Z,36.20
2022-11-29T06:24:42.962Z,33.00
2022-11-29T06:27:22.840Z,35.80
2022-11-29T06:29:54.308Z,36.27
2022-11-29T06:32:26.403Z,39.00
2022-11-29T06:34:56.803Z,33.47
2022-11-29T06:37:26.215Z,35.40
2022-11-29T06:39:55.844Z,34.57
2022-11-29T06:42:25.655Z,39.97
2022-11-29T06:44:54.176Z,45.17
2022-11-29T06:47:27.530Z,39.53
2022-11-29T06:50:00.119Z,40.27
2022-11-29T06:52:33.617Z,33.77
2022-11-29T06:55:10.164Z,40.40
2022-11-29T06:57:45.163Z,37.83
2022-11-29T07:00:17.796Z,40.27
2022-11-29T07:02:56.360Z,42.07
2022-11-29T07:05:25.944Z,41.90
2022-11-29T07:07:55.381Z,40.27
2022-11-29T07:10:26.469Z,31.33
2022-11-29T07:12:56.636Z,34.77
2022-11-29T07:15:25.480Z,41.63
2022-11-29T07:18:00.666Z,30.27
2022-11-29T07:20:33.114Z,34.53
2022-11-29T07:23:04.457Z,37.10
2022-11-29T07:25:39.873Z,39.20
2022-11-29T07:28:14.696Z,40.40
2022-11-29T07:30:45.008Z,38.03
2022-11-29T07:33:16.423Z,43.40
2022-11-29T07:35:48.014Z,36.33
2022-11-29T07:38:21.953Z,37.27
2022-11-29T07:40:53.925Z,37.70
2022-11-29T07:43:31.521Z,36.87
2022-11-29T07:45:59.801Z,37.67
2022-11-29T07:48:28.099Z,35.47
2022-11-29T07:50:56.627Z,38.17
2022-11-29T07:53:25.422Z,38.53
2022-11-29T07:55:54.929Z,39.70
2022-11-29T07:58:23.509Z,31.83
2022-11-29T08:00:53.698Z,36.13
2022-11-29T08:03:22.301Z,37.00
2022-11-29T08:05:50.684Z,29.73
2022-11-29T08:08:19.279Z,37.30
2022-11-29T08:10:47.637Z,38.70
2022-11-29T08:13:16.008Z,35.20
2022-11-29T08:15:47.440Z,39.33
2022-11-29T08:18:17.480Z,39.63
2022-11-29T08:20:46.363Z,38.37
2022-11-29T08:23:15.015Z,38.80
2022-11-29T08:25:43.577Z,37.73
2022-11-29T08:28:11.817Z,37.60
2022-11-29T08:30:40.125Z,34.27
2022-11-29T08:33:08.416Z,42.33
2022-11-29T08:35:39.129Z,44.23
2022-11-29T08:38:07.418Z,39.93
2022-11-29T08:40:35.683Z,44.87
2022-11-29T08:43:03.967Z,48.73
2022-11-29T08:45:32.386Z,50.60
2022-11-29T08:48:00.656Z,59.43
2022-11-29T08:50:28.874Z,45.93
2022-11-29T08:53:17.476Z,48.93
2022-11-29T08:55:46.645Z,55.97
2022-11-29T08:58:15.860Z,49.60
2022-11-29T09:00:45.991Z,54.23
2022-11-29T09:03:32.318Z,49.37
2022-11-29T09:06:00.618Z,46.60
2022-11-29T09:08:30.597Z,51.57
2022-11-29T09:11:09.603Z,47.50
2022-11-29T09:13:37.896Z,49.30
2022-11-29T09:16:08.300Z,55.33
2022-11-29T09:18:36.845Z,50.20
2022-11-29T09:21:06.793Z,51.70
2022-11-29T09:23:36.903Z,45.37
2022-11-29T09:26:05.637Z,50.27
2022-11-29T09:28:34.682Z,49.57
2022-11-29T09:31:06.842Z,42.97
2022-11-29T09:33:35.245Z,46.33
2022-11-29T09:36:04.020Z,49.00
2022-11-29T09:38:32.276Z,45.20
2022-11-29T09:41:05.019Z,44.90
2022-11-29T09:43:39.640Z,46.40
2022-11-29T09:46:18.096Z,54.87
2022-11-29T09:49:02.395Z,50.53
2022-11-29T09:51:35.958Z,49.83
2022-11-29T09:54:14.658Z,48.90
2022-11-29T09:56:45.773Z,49.17
2022-11-29T09:59:15.450Z,46.13
2022-11-29T10:01:45.072Z,39.20
2022-11-29T10:04:16.280Z,44.33
2022-11-29T10:06:47.640Z,46.07
2022-11-29T10:09:18.509Z,41.37
2022-11-29T10:11:56.681Z,37.80
2022-11-29T10:14:27.427Z,38.47
2022-11-29T10:16:58.216Z,37.83
2022-11-29T10:19:29.981Z,36.53
2022-11-29T10:22:02.459Z,36.73
2022-11-29T10:24:31.361Z,39.90
2022-11-29T10:27:01.264Z,33.40
2022-11-29T10:29:29.634Z,35.47
2022-11-29T10:31:59.263Z,33.53
2022-11-29T10:34:27.853Z,35.27
2022-11-29T10:36:59.436Z,35.67
2022-11-29T10:39:31.693Z,32.53
2022-11-29T10:42:04.659Z,37.60
2022-11-29T10:44:33.743Z,36.00
2022-11-29T10:47:09.306Z,30.43
2022-11-29T10:49:40.148Z,32.70
2022-11-29T10:52:13.151Z,29.23
2022-11-29T10:54:43.921Z,31.87
2022-11-29T10:57:16.654Z,28.90
2022-11-29T10:59:59.733Z,26.80
2022-11-29T11:02:28.718Z,29.83
2022-11-29T11:04:57.184Z,27.33
2022-11-29T11:07:26.680Z,30.40
2022-11-29T11:09:56.885Z,30.27
2022-11-29T11:12:29.930Z,24.00
2022-11-29T11:15:17.876Z,24.47
2022-11-29T11:17:56.949Z,27.83
2022-11-29T11:20:26.343Z,30.27
2022-11-29T11:22:59.039Z,29.43
2022-11-29T11:25:29.013Z,36.33
2022-11-29T11:27:58.892Z,30.33
2022-11-29T11:30:28.102Z,26.90
2022-11-29T11:33:09.376Z,36.33
2022-11-29T11:35:37.905Z,28.77
2022-11-29T11:38:06.155Z,28.93
2022-11-29T11:40:34.687Z,29.50
2022-11-29T11:43:04.511Z,29.60
2022-11-29T11:45:35.439Z,36.07
2022-11-29T11:48:05.805Z,32.50
2022-11-29T11:50:35.075Z,29.97
2022-11-29T11:53:05.710Z,32.93
2022-11-29T11:55:34.991Z,31.97
2022-11-29T11:58:10.505Z,28.33
2022-11-29T12:01:02.902Z,30.70
2022-11-29T12:03:39.714Z,27.20
2022-11-29T12:06:23.857Z,31.27
2022-11-29T12:08:52.861Z,25.37
2022-11-29T12:11:22.178Z,24.13
2022-11-29T12:13:55.038Z,27.53
2022-11-29T12:16:27.517Z,25.83
2022-11-29T12:18:59.693Z,31.17
2022-11-29T12:21:29.698Z,32.40
2022-11-29T12:24:00.485Z,25.80
2022-11-29T12:29:22.358Z,29.23
2022-11-29T12:31:58.147Z,29.00
2022-11-29T12:34:31.849Z,29.13
2022-11-29T12:37:06.392Z,26.57
2022-11-29T12:39:43.484Z,27.10
2022-11-29T12:42:16.890Z,27.47
2022-11-29T12:44:52.409Z,34.63
2022-11-29T12:47:41.661Z,28.63
2022-11-29T12:50:16.223Z,29.33
2022-11-29T12:52:46.742Z,28.03
2022-11-29T12:55:20.138Z,28.47
2022-11-29T12:57:53.430Z,28.47
2022-11-29T13:00:24.529Z,29.37
2022-11-29T13:03:00.672Z,25.70
2022-11-29T13:05:35.400Z,27.67
2022-11-29T13:08:10.088Z,28.17
2022-11-29T13:10:43.893Z,30.30
2022-11-29T13:13:18.027Z,27.27
2022-11-29T13:15:52.032Z,32.63
2022-11-29T13:18:24.250Z,28.37
2022-11-29T13:20:56.131Z,31.70
2022-11-29T13:23:45.624Z,25.40
2022-11-29T13:26:15.060Z,25.20
2022-11-29T13:28:43.814Z,25.47
2022-11-29T13:31:15.814Z,31.43
2022-11-29T13:33:49.014Z,28.37
2022-11-29T13:36:19.946Z,30.63
2022-11-29T13:38:51.898Z,29.60
2022-11-29T13:41:24.582Z,28.40
2022-11-29T13:43:57.758Z,35.23
2022-11-29T13:46:29.892Z,34.30
2022-11-29T13:48:58.319Z,28.70
2022-11-29T13:51:28.558Z,34.17
2022-11-29T13:53:57.515Z,37.80
2022-11-29T13:56:32.705Z,31.50
2022-11-29T13:59:01.647Z,29.17
2022-11-29T14:01:31.356Z,33.87
2022-11-29T14:04:04.865Z,32.93
2022-11-29T14:06:33.994Z,36.30
2022-11-29T14:09:32.505Z,31.13
2022-11-29T14:12:05.596Z,33.87
2022-11-29T14:14:36.404Z,31.90
2022-11-29T14:17:06.707Z,33.60
2022-11-29T14:19:35.386Z,35.53
2022-11-29T14:22:18.276Z,31.87
2022-11-29T14:24:57.335Z,35.20
2022-11-29T14:27:44.480Z,38.70
2022-11-29T14:30:27.642Z,31.90
2022-11-29T14:33:00.663Z,31.37
2022-11-29T14:35:31.154Z,34.93
2022-11-29T14:38:05.254Z,34.10
2022-11-29T14:40:35.379Z,34.03
2022-11-29T14:43:05.898Z,31.97
2022-11-29T14:45:35.598Z,31.80
2022-11-29T14:48:05.355Z,39.43
2022-11-29T14:50:34.867Z,35.87
2022-11-29T14:53:03.553Z,36.40
2022-11-29T14:55:33.622Z,37.83
2022-11-29T14:58:16.778Z,35.97
2022-11-29T15:01:08.068Z,36.50
2022-11-29T15:03:41.511Z,32.90
2022-11-29T15:06:11.714Z,38.30
2022-11-29T15:08:43.533Z,32.87
2022-11-29T15:11:16.266Z,38.30
2022-11-29T15:13:50.556Z,35.67
2022-11-29T15:16:24.288Z,39.93
2022-11-29T15:19:07.480Z,40.80
2022-11-29T15:21:41.682Z,38.37
2022-11-29T15:24:12.820Z,38.63
2022-11-29T15:26:41.505Z,37.13
2022-11-29T15:29:16.972Z,41.97
2022-11-29T15:31:45.553Z,36.40
2022-11-29T15:34:21.437Z,42.47
2022-11-29T15:36:51.100Z,38.97
2022-11-29T15:39:29.791Z,35.13
2022-11-29T15:42:05.621Z,41.73
2022-11-29T15:44:33.952Z,39.63
2022-11-29T15:47:18.705Z,33.97
2022-11-29T15:49:46.935Z,35.70
2022-11-29T15:52:20.804Z,37.27
2022-11-29T15:54:51.199Z,37.57
2022-11-29T15:57:20.510Z,40.30
2022-11-29T15:59:49.974Z,35.30
2022-11-29T16:02:20.174Z,32.07
2022-11-29T16:04:49.391Z,33.83
2022-11-29T16:07:19.755Z,35.40
2022-11-29T16:09:49.381Z,30.37
2022-11-29T16:12:18.590Z,36.13
2022-11-29T16:14:51.213Z,32.43
2022-11-29T16:17:20.443Z,34.20
2022-11-29T16:19:48.829Z,31.37
2022-11-29T16:22:19.986Z,34.13
2022-11-29T16:24:52.749Z,36.00
2022-11-29T16:27:22.012Z,34.53
2022-11-29T16:29:50.598Z,30.57
2022-11-29T16:32:25.386Z,32.17
2022-11-29T16:34:53.869Z,30.97
2022-11-29T16:37:24.584Z,34.43
2022-11-29T16:39:53.710Z,34.97
2022-11-29T16:42:26.179Z,31.60
2022-11-29T16:45:24.754Z,33.70
2022-11-29T16:47:58.131Z,37.57
2022-11-29T16:50:26.879Z,32.13
2022-11-29T16:52:57.109Z,33.23
2022-11-29T16:55:25.583Z,37.03
2022-11-29T16:57:54.072Z,37.23
2022-11-29T17:00:30.754Z,39.20
2022-11-29T17:02:59.157Z,36.27
2022-11-29T17:05:27.870Z,32.63
2022-11-29T17:07:57.885Z,35.33
2022-11-29T17:10:27.721Z,30.93
2022-11-29T17:12:55.951Z,32.43
2022-11-29T17:15:24.356Z,27.63
2022-11-29T17:17:52.640Z,33.17
2022-11-29T17:20:20.886Z,35.13
2022-11-29T17:22:49.212Z,35.90
2022-11-29T17:25:18.930Z,30.73
2022-11-29T17:27:47.172Z,31.37
2022-11-29T17:30:15.701Z,34.27
2022-11-29T17:32:44.069Z,27.20
2022-11-29T17:35:12.343Z,33.33
2022-11-29T17:37:40.717Z,28.37
2022-11-29T17:40:09.789Z,33.00
2022-11-29T17:42:39.423Z,35.47
2022-11-29T17:45:08.056Z,26.10
2022-11-29T17:47:36.308Z,31.93
2022-11-29T17:50:04.658Z,32.00
2022-11-29T17:52:32.895Z,33.83
2022-11-29T17:55:01.236Z,32.73
2022-11-29T17:57:29.654Z,31.13
2022-11-29T17:59:59.337Z,34.17
2022-11-29T18:02:27.737Z,29.43
2022-11-29T18:04:56.158Z,30.60
2022-11-29T18:07:24.603Z,31.37
2022-11-29T18:09:53.020Z,36.77
2022-11-29T18:12:22.598Z,34.30
2022-11-29T18:14:51.327Z,28.87
2022-11-29T18:17:21.176Z,30.87
2022-11-29T18:19:49.445Z,36.20
2022-11-29T18:22:17.878Z,29.87
2022-11-29T18:24:46.110Z,31.73
2022-11-29T18:27:14.375Z,31.10
2022-11-29T18:29:42.738Z,33.53
2022-11-29T18:32:11.099Z,33.83
2022-11-29T18:34:40.815Z,31.20
2022-11-29T18:37:15.296Z,31.17
2022-11-29T18:39:46.453Z,32.53
2022-11-29T18:42:14.926Z,38.00
2022-11-29T18:44:43.587Z,34.43
2022-11-29T18:47:14.789Z,28.97
2022-11-29T18:49:44.573Z,33.63
2022-11-29T18:52:13.384Z,27.53
2022-11-29T18:54:41.689Z,27.03
2022-11-29T18:57:09.990Z,28.50
2022-11-29T18:59:38.344Z,29.33
2022-11-29T19:02:06.874Z,31.73
2022-11-29T19:04:36.782Z,31.77
2022-11-29T19:07:06.487Z,31.73
2022-11-29T19:09:34.937Z,32.33
2022-11-29T19:12:03.804Z,26.10
2022-11-29T19:14:34.029Z,31.87
2022-11-29T19:17:02.771Z,27.27
2022-11-29T19:19:32.138Z,30.80
2022-11-29T19:22:01.005Z,27.70
2022-11-29T19:24:30.774Z,33.83
2022-11-29T19:27:01.100Z,30.40
2022-11-29T19:29:29.560Z,29.40
2022-11-29T19:31:57.799Z,32.20
2022-11-29T19:34:26.102Z,30.77
2022-11-29T19:36:54.397Z,32.67
2022-11-29T19:39:22.725Z,29.93
2022-11-29T19:41:53.507Z,28.93
2022-11-29T19:44:27.962Z,28.80
2022-11-29T19:46:58.200Z,30.57
2022-11-29T19:49:26.744Z,28.30
2022-11-29T19:51:55.224Z,29.40
2022-11-29T19:54:23.749Z,28.13
2022-11-29T19:56:55.689Z,29.47
2022-11-29T19:59:24.034Z,30.97
2022-11-29T20:01:52.369Z,30.23
2022-11-29T20:04:20.811Z,33.20
2022-11-29T20:06:49.219Z,31.50
2022-11-29T20:09:17.931Z,31.03
2022-11-29T20:11:46.289Z,33.10
2022-11-29T20:14:16.104Z,32.03
2022-11-29T20:16:44.374Z,29.57
2022-11-29T20:19:13.860Z,29.63
2022-11-29T20:21:44.038Z,28.30
2022-11-29T20:24:14.172Z,28.63
2022-11-29T20:26:43.279Z,28.73
2022-11-29T20:29:12.074Z,33.27
2022-11-29T20:31:49.111Z,27.80
2022-11-29T20:34:18.292Z,28.43
2022-11-29T20:36:50.917Z,26.77
2022-11-29T20:39:24.437Z,29.70
2022-11-29T20:41:59.006Z,28.63
2022-11-29T20:44:34.932Z,31.47
2022-11-29T20:47:10.215Z,24.07
2022-11-29T20:49:38.677Z,24.17
2022-11-29T20:52:08.656Z,22.30
2022-11-29T20:54:36.939Z,27.27
2022-11-29T20:57:05.463Z,24.27
2022-11-29T20:59:36.087Z,21.43
2022-11-29T21:02:05.892Z,23.30
2022-11-29T21:04:34.200Z,22.90
2022-11-29T21:07:03.459Z,23.70
2022-11-29T21:09:31.994Z,22.90
2022-11-29T21:12:00.844Z,23.53
2022-11-29T21:14:29.587Z,25.70
2022-11-29T21:16:58.492Z,25.40
2022-11-29T21:19:28.783Z,24.27
2022-11-29T21:22:04.231Z,26.13
2022-11-29T21:24:36.714Z,24.73
2022-11-29T21:27:05.242Z,23.03
2022-11-29T21:29:33.740Z,26.20
2022-11-29T21:32:02.970Z,26.27
2022-11-29T21:34:34.030Z,24.40
2022-11-29T21:37:02.365Z,26.03
2022-11-29T21:39:33.346Z,26.07
2022-11-29T21:42:01.749Z,24.53
2022-11-29T21:44:30.067Z,24.57
2022-11-29T21:46:58.360Z,29.73
2022-11-29T21:49:26.790Z,25.87
2022-11-29T21:51:57.598Z,29.90
2022-11-29T21:54:25.849Z,31.50
2022-11-29T21:56:54.194Z,30.73
2022-11-29T21:59:24.674Z,30.70
2022-11-29T22:01:53.011Z,32.17
2022-11-29T22:04:21.471Z,33.57
2022-11-29T22:06:49.804Z,28.57
2022-11-29T22:09:19.511Z,30.83
2022-11-29T22:11:47.840Z,33.33
2022-11-29T22:14:18.239Z,30.87
2022-11-29T22:16:47.970Z,29.47
2022-11-29T22:19:17.465Z,28.13
2022-11-29T22:21:46.913Z,28.60
2022-11-29T22:24:16.057Z,28.43
2022-11-29T22:26:45.967Z,29.90
2022-11-29T22:29:14.714Z,31.90
2022-11-29T22:31:43.372Z,33.63
2022-11-29T22:34:11.671Z,30.13
2022-11-29T22:36:40.332Z,31.60
2022-11-29T22:39:08.954Z,26.43
2022-11-29T22:41:38.220Z,25.70
2022-11-29T22:44:08.089Z,25.27
2022-11-29T22:46:36.734Z,25.77
2022-11-29T22:49:05.449Z,24.67
2022-11-29T22:51:34.167Z,22.47
2022-11-29T22:54:03.183Z,23.90
2022-11-29T22:56:32.450Z,24.73
2022-11-29T22:59:00.698Z,23.77
2022-11-29T23:01:31.153Z,22.13
2022-11-29T23:04:00.782Z,25.23
2022-11-29T23:06:30.111Z,25.27
2022-11-29T23:08:59.204Z,25.30
2022-11-29T23:11:28.153Z,25.20
2022-11-29T23:13:56.743Z,21.23
2022-11-29T23:16:25.741Z,24.10
2022-11-29T23:18:55.620Z,20.17
2022-11-29T23:21:25.225Z,19.63
2022-11-29T23:23:56.631Z,20.90
2022-11-29T23:26:27.388Z,22.37
2022-11-29T23:28:56.096Z,22.87
2022-11-29T23:31:25.350Z,20.77
2022-11-29T23:33:55.351Z,20.83
2022-11-29T23:36:23.742Z,17.77
2022-11-29T23:38:52.056Z,19.23
2022-11-29T23:41:20.399Z,20.20
2022-11-29T23:43:48.636Z,17.47
2022-11-29T23:46:17.963Z,20.10
2022-11-29T23:48:46.575Z,18.50
2022-11-29T23:51:16.638Z,16.97
2022-11-29T23:53:45.218Z,16.67
2022-11-29T23:56:14.547Z,15.33
2022-11-29T23:58:43.181Z,19.73
